Time;durP1;ratioP1;P1;durP2;ratioP2;P2;SDS_P1;SDS_P2;PMS_P1;PMS_P2;Temp;Humidity;BMP_temperature;BMP_pressure;BME280_temperature;BME280_humidity;BME280_pressure;Samples;Min_cycle;Max_cycle;Signal;HPM_P1;HPM_P2
2021/08/17 00:00:57;;;;;;;15.47;5.73;;;;;;;23.73;66.05;99076.13;6302448;28;20071;-67
2021/08/17 00:03:58;;;;;;;11.97;6.07;;;;;;;23.73;64.93;99066.28;6320756;28;20047;-67
2021/08/17 00:06:59;;;;;;;14.63;6.23;;;;;;;23.78;63.39;99070.22;6345441;28;20126;-68
2021/08/17 00:10:02;;;;;;;13.30;6.50;;;;;;;23.83;61.20;99065.94;6327452;28;20064;-62
2021/08/17 00:13:03;;;;;;;14.23;5.97;;;;;;;23.85;60.94;99057.75;6345347;28;20039;-62
2021/08/17 00:16:04;;;;;;;14.83;5.67;;;;;;;23.98;60.02;99071.06;6345402;28;20047;-62
2021/08/17 00:19:05;;;;;;;13.97;5.83;;;;;;;24.06;58.34;99072.72;6327331;28;20539;-62
2021/08/17 00:22:09;;;;;;;21.57;6.37;;;;;;;24.11;58.12;99062.25;6327154;28;20070;-62
2021/08/17 00:25:10;;;;;;;12.73;6.18;;;;;;;24.11;57.63;99068.41;6345314;28;20054;-62
2021/08/17 00:28:11;;;;;;;10.45;5.72;;;;;;;24.11;56.72;99068.41;6327292;28;20091;-62
2021/08/17 00:31:12;;;;;;;10.27;5.53;;;;;;;24.17;54.82;99074.75;6345238;28;20039;-62
2021/08/17 00:34:13;;;;;;;9.23;5.43;;;;;;;24.17;54.65;99069.41;6326809;28;20039;-62
2021/08/17 00:37:16;;;;;;;9.63;5.33;;;;;;;24.21;53.86;99070.66;6336883;28;20047;-62
2021/08/17 00:40:17;;;;;;;8.32;5.18;;;;;;;24.23;54.03;99070.44;6370575;28;20035;-62
2021/08/17 00:43:18;;;;;;;10.35;5.13;;;;;;;24.28;53.16;99084.81;6352410;28;20043;-62
2021/08/17 00:46:20;;;;;;;10.50;5.60;;;;;;;24.24;53.10;99101.41;6350075;28;20401;-62
2021/08/17 00:49:24;;;;;;;9.93;5.85;;;;;;;24.30;52.44;99161.91;6327203;28;20240;-62
2021/08/17 00:52:25;;;;;;;10.35;5.68;;;;;;;24.36;51.68;99254.38;6309924;28;20032;-61
2021/08/17 00:55:31;;;;;;;8.13;5.30;;;;;;;24.28;54.42;99238.59;6310020;28;20528;-62
2021/08/17 00:58:31;;;;;;;13.85;6.72;;;;;;;24.22;56.68;99263.38;6345111;28;20495;-62
2021/08/17 01:01:32;;;;;;;20.57;6.67;;;;;;;24.07;58.81;99255.53;6345004;28;20043;-62
2021/08/17 01:04:34;;;;;;;15.83;6.37;;;;;;;24.18;60.03;99284.28;6347594;28;20081;-62
2021/08/17 01:07:35;;;;;;;;;;;;;;;24.10;62.10;99284.44;6350151;28;20406;-62
2021/08/17 01:10:38;;;;;;;13.50;6.70;;;;;;;24.16;66.10;99275.66;6370101;27;20002;-61
2021/08/17 01:13:39;;;;;;;17.33;6.90;;;;;;;24.23;69.95;99299.66;6375077;27;20035;-63
2021/08/17 01:16:41;;;;;;;13.77;6.40;;;;;;;24.29;74.26;99312.19;6339881;27;20103;-62
2021/08/17 01:19:42;;;;;;;8.82;5.93;;;;;;;24.24;80.53;99314.63;6339909;27;20046;-62
2021/08/17 01:22:44;;;;;;;7.13;5.68;;;;;;;24.07;83.80;99299.00;6375061;27;20055;-62
2021/08/17 01:25:45;;;;;;;9.75;5.60;;;;;;;24.07;84.68;99292.84;6356704;27;20031;-62
2021/08/17 01:28:46;;;;;;;11.02;5.63;;;;;;;24.00;85.13;99270.69;6356421;27;20040;-62
2021/08/17 01:31:47;;;;;;;5.40;3.90;;;;;;;23.86;83.02;99272.47;6356303;27;20035;-62
2021/08/17 01:34:48;;;;;;;5.75;3.13;;;;;;;23.74;82.60;99265.03;6356291;27;20092;-62
2021/08/17 01:37:49;;;;;;;8.57;3.60;;;;;;;23.84;82.38;99293.97;6356254;27;20039;-62
2021/08/17 01:40:50;;;;;;;7.87;4.07;;;;;;;23.88;82.54;99273.91;6374443;27;20043;-62
2021/08/17 01:43:51;;;;;;;7.00;3.67;;;;;;;23.84;82.06;99256.69;6353577;27;20053;-62
2021/08/17 01:46:52;;;;;;;6.32;3.88;;;;;;;23.83;82.47;99257.72;6365765;27;20047;-62
2021/08/17 01:49:53;;;;;;;8.20;3.70;;;;;;;23.73;83.09;99247.38;6355964;27;20492;-62
2021/08/17 01:52:53;;;;;;;9.20;3.67;;;;;;;23.66;82.53;99243.91;6356083;27;20055;-62
2021/08/17 01:55:56;;;;;;;6.20;3.47;;;;;;;23.61;82.75;99251.63;6361804;27;20054;-62
2021/08/17 01:58:57;;;;;;;8.90;3.35;;;;;;;23.48;84.22;99268.38;6373094;27;20099;-62
2021/08/17 02:01:58;;;;;;;7.68;3.22;;;;;;;23.29;85.84;99251.28;6355539;27;20039;-62
2021/08/17 02:04:59;;;;;;;10.55;3.70;;;;;;;23.26;86.43;99256.16;6338137;27;20493;-63
2021/08/17 02:08:03;;;;;;;6.33;3.43;;;;;;;23.36;85.12;99222.03;6373704;27;20408;-62
2021/08/17 02:11:04;;;;;;;5.90;3.13;;;;;;;23.53;83.81;99201.22;6373209;27;20057;-62
2021/08/17 02:14:05;;;;;;;4.55;3.20;;;;;;;23.55;84.18;99207.16;6337795;27;20047;-63
2021/08/17 02:17:05;;;;;;;6.40;2.93;;;;;;;23.42;85.00;99215.09;6372630;27;20109;-62
2021/08/17 02:20:06;;;;;;;6.67;3.33;;;;;;;23.29;85.13;99208.69;6373228;27;20121;-63
2021/08/17 02:23:08;;;;;;;6.75;3.30;;;;;;;23.34;84.91;99197.44;6338251;27;20050;-62
2021/08/17 02:26:08;;;;;;;6.55;3.03;;;;;;;23.28;84.48;99220.34;6355008;27;20035;-62
2021/08/17 02:29:09;;;;;;;5.33;3.10;;;;;;;23.19;84.93;99240.16;6321201;27;20100;-62
2021/08/17 02:32:10;;;;;;;8.70;3.67;;;;;;;23.35;84.57;99220.41;6373171;27;20071;-62
2021/08/17 02:35:11;;;;;;;9.67;3.30;;;;;;;23.43;83.74;99225.56;6354916;27;20043;-63
2021/08/17 02:38:12;;;;;;;5.50;3.55;;;;;;;23.26;84.59;99232.22;6354831;27;20043;-62
2021/08/17 02:41:13;;;;;;;7.50;3.72;;;;;;;23.18;85.72;99235.84;6354746;27;20047;-62
2021/08/17 02:44:14;;;;;;;7.67;3.43;;;;;;;23.11;85.81;99229.66;6372877;27;20130;-62
2021/08/17 02:47:15;;;;;;;5.93;3.60;;;;;;;23.08;87.48;99222.91;6348172;27;20124;-62
2021/08/17 02:50:15;;;;;;;7.33;3.33;;;;;;;23.11;86.51;99217.19;6329152;28;20145;-62
2021/08/17 02:53:16;;;;;;;8.77;3.93;;;;;;;23.11;85.97;99222.50;6312151;28;20042;-62
2021/08/17 02:56:17;;;;;;;6.30;3.70;;;;;;;23.21;85.28;99237.31;6346847;28;20287;-62
2021/08/17 02:59:18;;;;;;;7.75;3.40;;;;;;;23.29;85.59;99235.31;6312041;28;20062;-62
2021/08/17 03:02:19;;;;;;;5.37;3.43;;;;;;;23.00;86.40;99241.66;6311982;28;20490;-63
2021/08/17 03:05:19;;;;;;;6.70;3.90;;;;;;;23.01;88.24;99240.66;6328572;28;20051;-63
2021/08/17 03:08:20;;;;;;;5.97;3.23;;;;;;;22.86;89.22;99239.91;6346748;28;20039;-62
2021/08/17 03:11:21;;;;;;;6.23;3.70;;;;;;;22.72;90.71;99246.94;6328685;28;20044;-62
2021/08/17 03:14:22;;;;;;;6.73;3.70;;;;;;;22.76;89.58;99247.38;6311672;28;20051;-63
2021/08/17 03:17:22;;;;;;;7.82;3.70;;;;;;;22.90;88.39;99251.81;6346594;28;20039;-62
2021/08/17 03:20:23;;;;;;;12.97;4.23;;;;;;;22.72;89.67;99239.78;6328441;28;20123;-62
2021/08/17 03:23:26;;;;;;;7.07;4.00;;;;;;;22.47;92.56;99235.91;6346307;28;20176;-62
2021/08/17 03:26:27;;;;;;;9.25;3.95;;;;;;;22.40;92.70;99246.44;6327347;28;20042;-62
2021/08/17 03:29:28;;;;;;;13.43;3.70;;;;;;;22.37;94.05;99246.03;6347981;27;20447;-61
2021/08/17 03:32:28;;;;;;;6.10;4.33;;;;;;;22.31;94.51;99250.25;6309311;28;20481;-62
2021/08/17 03:35:29;;;;;;;7.65;4.13;;;;;;;22.31;93.68;99244.94;6327835;28;20870;-62
2021/08/17 03:38:31;;;;;;;6.10;4.10;;;;;;;22.39;93.54;99242.16;6346175;28;20036;-62
2021/08/17 03:41:32;;;;;;;9.55;4.30;;;;;;;22.43;93.87;99238.09;6346046;28;20047;-62
2021/08/17 03:44:33;;;;;;;8.40;4.47;;;;;;;22.54;93.35;99242.88;6352987;27;20035;-62
2021/08/17 03:47:34;;;;;;;6.20;4.20;;;;;;;22.50;92.73;99235.50;6353129;27;20035;-62
2021/08/17 03:50:35;;;;;;;9.07;4.83;;;;;;;22.52;92.57;99233.47;6371469;27;20039;-63
2021/08/17 03:53:36;;;;;;;10.10;4.68;;;;;;;22.47;93.69;99226.06;6371395;27;20046;-62
2021/08/17 03:56:37;;;;;;;9.63;4.50;;;;;;;22.47;93.42;99228.72;6352906;27;20054;-62
2021/08/17 03:59:38;;;;;;;6.87;4.30;;;;;;;22.69;91.41;99228.69;6353020;27;20485;-62
2021/08/17 04:02:39;;;;;;;11.43;4.30;;;;;;;22.49;94.32;99228.56;6371091;27;20047;-62
2021/08/17 04:05:39;;;;;;;8.30;4.43;;;;;;;22.37;93.59;99225.56;6371191;27;20128;-62
2021/08/17 04:08:40;;;;;;;9.03;4.90;;;;;;;22.58;92.13;99234.56;6352782;27;20482;-62
2021/08/17 04:11:41;;;;;;;7.93;4.53;;;;;;;22.44;93.03;99241.56;6352979;27;20038;-62
2021/08/17 04:14:41;;;;;;;7.67;4.70;;;;;;;22.45;94.40;99253.88;6370980;27;20110;-62
2021/08/17 04:17:42;;;;;;;12.33;4.70;;;;;;;22.56;92.85;99256.00;6370903;27;20039;-62
2021/08/17 04:20:43;;;;;;;11.17;5.50;;;;;;;22.36;93.91;99265.63;6370992;28;20433;-62
2021/08/17 04:23:44;;;;;;;12.83;4.70;;;;;;;22.58;92.90;99266.44;6335675;28;20279;-63
2021/08/17 04:26:45;;;;;;;10.20;4.70;;;;;;;22.62;93.34;99268.53;6370895;28;20043;-62
2021/08/17 04:29:46;;;;;;;10.13;5.45;;;;;;;22.57;92.99;99270.94;6352520;28;20053;-62
2021/08/17 04:32:46;;;;;;;8.80;4.93;;;;;;;22.57;92.36;99272.75;6352376;28;20043;-62
2021/08/17 04:35:47;;;;;;;10.50;5.00;;;;;;;22.50;93.45;99257.56;6352479;28;20047;-63
2021/08/17 04:38:48;;;;;;;6.67;4.50;;;;;;;22.43;93.45;99264.69;6338915;27;20175;-62
2021/08/17 04:41:48;;;;;;;11.13;5.03;;;;;;;22.47;93.59;99259.81;6355288;27;20047;-62
2021/08/17 04:44:49;;;;;;;8.93;4.70;;;;;;;22.39;93.55;99270.56;6332001;28;20219;-62
2021/08/17 04:47:51;;;;;;;18.33;5.90;;;;;;;22.35;93.29;99278.09;6356620;27;20042;-62
2021/08/17 04:50:52;;;;;;;12.23;5.07;;;;;;;22.27;94.15;99273.72;6340623;27;20050;-62
2021/08/17 04:53:53;;;;;;;10.33;5.13;;;;;;;22.36;94.04;99287.69;6340331;27;20066;-62
2021/08/17 04:56:53;;;;;;;9.23;5.53;;;;;;;22.21;95.00;99297.53;6368370;27;20044;-62
2021/08/17 04:59:54;;;;;;;9.97;5.10;;;;;;;22.37;94.03;99292.00;6352066;27;20267;-67
2021/08/17 05:02:56;;;;;;;13.60;5.17;;;;;;;22.28;93.09;99307.25;6331658;28;20447;-66
2021/08/17 05:05:56;;;;;;;7.93;4.82;;;;;;;22.65;92.98;99337.28;6331274;28;20067;-67
2021/08/17 05:08:57;;;;;;;9.23;4.80;;;;;;;22.80;91.30;99347.88;6349791;28;20474;-67
2021/08/17 05:11:59;;;;;;;9.83;4.67;;;;;;;22.94;90.97;99352.28;6331643;28;20103;-66
2021/08/17 05:14:59;;;;;;;7.60;4.45;;;;;;;22.92;90.86;99358.81;6331515;28;20044;-67
2021/08/17 05:18:02;;;;;;;11.23;4.47;;;;;;;23.00;90.53;99361.34;6314421;28;20101;-67
2021/08/17 05:21:03;;;;;;;8.38;4.78;;;;;;;23.04;89.97;99370.63;6331433;28;20436;-67
2021/08/17 05:24:04;;;;;;;8.77;4.78;;;;;;;22.91;91.48;99368.63;6349296;28;20050;-67
2021/08/17 05:27:05;;;;;;;10.32;4.30;;;;;;;23.01;91.98;99370.16;6331151;28;20047;-67
2021/08/17 05:30:06;;;;;;;7.53;4.83;;;;;;;22.94;90.71;99370.91;6331011;28;20040;-66
2021/08/17 05:33:07;;;;;;;9.88;4.55;;;;;;;23.00;91.84;99384.44;6349146;28;20069;-66
2021/08/17 05:36:08;;;;;;;8.30;4.17;;;;;;;22.88;92.24;99384.97;6330865;28;20488;-67
2021/08/17 05:39:09;;;;;;;9.87;4.13;;;;;;;22.89;91.37;99388.44;6349276;28;20507;-67
2021/08/17 05:42:11;;;;;;;6.53;3.90;;;;;;;22.77;91.25;99388.13;6297531;28;20133;-67
2021/08/17 05:45:12;;;;;;;5.78;3.38;;;;;;;22.76;91.20;99391.81;6348352;28;20329;-66
2021/08/17 05:48:13;;;;;;;6.88;3.60;;;;;;;22.66;91.44;99389.44;6348724;28;20043;-67
2021/08/17 05:51:13;;;;;;;7.73;3.67;;;;;;;22.69;90.88;99390.88;6347883;28;20036;-67
2021/08/17 05:54:14;;;;;;;8.47;3.40;;;;;;;22.74;90.39;99393.81;6330574;28;20555;-67
2021/08/17 05:57:15;;;;;;;8.53;3.20;;;;;;;22.70;90.55;99397.88;6330346;28;20066;-67
2021/08/17 06:00:16;;;;;;;10.27;3.22;;;;;;;22.62;90.81;99390.81;6313585;28;20040;-67
2021/08/17 06:03:17;;;;;;;9.00;3.43;;;;;;;22.72;90.54;99401.16;6348297;28;20055;-67
2021/08/17 06:06:17;;;;;;;6.40;3.43;;;;;;;22.67;90.76;99423.00;6334091;27;20291;-67
2021/08/17 06:09:19;;;;;;;10.37;3.60;;;;;;;22.63;91.65;99408.44;6356979;27;20093;-67
2021/08/17 06:12:20;;;;;;;8.18;3.38;;;;;;;22.63;92.03;99412.91;6330677;28;20716;-67
2021/08/17 06:15:20;;;;;;;4.90;3.17;;;;;;;22.62;92.62;99414.75;6348969;28;20044;-68
2021/08/17 06:18:21;;;;;;;10.20;3.13;;;;;;;22.71;91.75;99421.63;6348602;28;20040;-66
2021/08/17 06:21:22;;;;;;;6.90;3.40;;;;;;;22.77;91.66;99419.22;6330987;28;20489;-66
2021/08/17 06:24:22;;;;;;;12.17;3.20;;;;;;;22.80;91.46;99424.97;6354452;27;20472;-66
2021/08/17 06:27:23;;;;;;;6.63;3.30;;;;;;;22.89;91.29;99442.47;6319481;27;20058;-66
2021/08/17 06:30:24;;;;;;;7.70;3.40;;;;;;;22.90;90.82;99441.47;6348109;28;20130;-64
2021/08/17 06:33:25;;;;;;;8.70;3.07;;;;;;;22.86;90.20;99450.81;6295847;28;20052;-63
2021/08/17 06:36:26;;;;;;;10.50;3.00;;;;;;;22.98;90.34;99445.00;6347923;28;20692;-62
2021/08/17 06:39:27;;;;;;;6.53;3.40;;;;;;;22.86;89.74;99442.03;6312816;28;20102;-63
2021/08/17 06:42:31;;;;;;;7.30;3.50;;;;;;;22.83;90.50;99445.06;6347888;28;20043;-62
2021/08/17 06:45:31;;;;;;;14.93;3.55;;;;;;;22.86;90.70;99448.16;6347543;28;20032;-63
2021/08/17 06:48:32;;;;;;;8.33;3.50;;;;;;;22.90;92.61;99437.97;6296762;28;20538;-65
2021/08/17 06:51:33;;;;;;;7.13;3.70;;;;;;;23.15;90.98;99438.47;6330266;28;20043;-66
2021/08/17 06:54:34;;;;;;;8.33;3.77;;;;;;;23.22;90.95;99446.50;6330373;28;20595;-67
2021/08/17 06:57:35;;;;;;;9.40;4.00;;;;;;;23.29;89.88;99450.06;6330090;28;20051;-67
2021/08/17 07:00:35;;;;;;;5.80;3.23;;;;;;;23.18;89.96;99445.25;6353397;27;20047;-67
2021/08/17 07:03:36;;;;;;;8.93;4.00;;;;;;;23.11;88.84;99434.53;6373625;27;20290;-67
2021/08/17 07:06:37;;;;;;;9.33;3.13;;;;;;;23.09;88.57;99425.91;6373360;27;20043;-65
2021/08/17 07:09:37;;;;;;;8.40;3.03;;;;;;;23.24;88.15;99437.31;6355021;27;20438;-64
2021/08/17 07:12:38;;;;;;;10.83;3.70;;;;;;;23.16;87.37;99448.09;6364869;27;20039;-62
2021/08/17 07:15:39;;;;;;;8.50;3.43;;;;;;;23.33;85.82;99449.50;6340976;27;20050;-65
2021/08/17 07:18:40;;;;;;;6.10;2.67;;;;;;;23.50;85.54;99455.34;6337974;27;20043;-64
2021/08/17 07:21:41;;;;;;;6.97;3.20;;;;;;;23.71;84.50;99440.38;6340061;27;20070;-65
2021/08/17 07:24:42;;;;;;;7.13;2.80;;;;;;;23.79;81.64;99442.09;6333528;27;20465;-66
2021/08/17 07:27:45;;;;;;;7.63;2.60;;;;;;;23.81;77.90;99450.72;6340710;28;20482;-66
2021/08/17 07:30:46;;;;;;;3.42;2.10;;;;;;;23.94;76.29;99458.78;6347124;27;20557;-67
2021/08/17 07:33:47;;;;;;;4.13;1.90;;;;;;;24.17;73.27;99473.69;6350838;27;20035;-68
2021/08/17 07:36:47;;;;;;;3.83;1.80;;;;;;;24.16;73.70;99491.53;6347913;27;20275;-68
2021/08/17 07:39:48;;;;;;;9.30;1.90;;;;;;;24.20;74.59;99511.44;6346696;27;20078;-68
2021/08/17 07:42:49;;;;;;;7.03;2.10;;;;;;;24.23;74.08;99516.38;6372649;27;20053;-66
2021/08/17 07:45:50;;;;;;;6.35;1.88;;;;;;;24.20;74.48;99526.63;6354274;27;20066;-66
2021/08/17 07:48:51;;;;;;;5.67;1.50;;;;;;;24.19;73.53;99536.44;6372269;27;20469;-66
2021/08/17 07:51:52;;;;;;;4.97;1.53;;;;;;;23.96;72.99;99552.66;6320119;27;20075;-65
2021/08/17 07:54:52;;;;;;;3.57;1.83;;;;;;;24.19;71.92;99575.59;6329338;27;20276;-66
2021/08/17 07:57:53;;;;;;;3.77;1.53;;;;;;;24.11;71.45;99565.88;6359466;27;20064;-66
2021/08/17 08:00:54;;;;;;;5.03;1.67;;;;;;;24.06;71.39;99576.31;6346789;28;20040;-66
2021/08/17 08:03:56;;;;;;;5.90;1.57;;;;;;;24.06;70.83;99602.97;6346917;28;20060;-66
2021/08/17 08:07:05;;;;;;;5.23;2.10;;;;;;;23.96;73.25;99591.81;6329678;28;20304;-62
2021/08/17 08:10:07;;;;;;;4.93;1.50;;;;;;;24.10;72.40;99562.41;6346638;28;20157;-61
2021/08/17 08:13:08;;;;;;;3.08;1.45;;;;;;;24.04;75.52;99538.38;6349305;28;20055;-61
2021/08/17 08:16:09;;;;;;;7.43;1.50;;;;;;;23.99;76.55;99554.13;6337892;28;20035;-60
2021/08/17 08:19:10;;;;;;;2.37;1.40;;;;;;;24.05;75.33;99588.81;6371204;27;20881;-61
2021/08/17 08:22:10;;;;;;;2.13;1.30;;;;;;;24.15;72.07;99623.13;6353022;28;20122;-61
2021/08/17 08:25:12;;;;;;;4.43;1.87;;;;;;;24.11;72.48;99625.38;6335359;28;20055;-61
2021/08/17 08:28:13;;;;;;;3.28;1.35;;;;;;;24.21;70.46;99624.19;6335570;28;20051;-61
2021/08/17 08:31:13;;;;;;;2.37;1.20;;;;;;;24.19;71.55;99635.03;6352476;28;20492;-61
2021/08/17 08:34:14;;;;;;;3.40;1.40;;;;;;;24.34;70.20;99630.47;6371058;28;20050;-61
2021/08/17 08:37:15;;;;;;;3.67;1.60;;;;;;;24.19;72.19;99631.56;6371124;28;20074;-63
2021/08/17 08:40:16;;;;;;;7.47;1.60;;;;;;;24.16;69.48;99638.09;6370586;28;20036;-61
2021/08/17 08:43:19;;;;;;;2.60;1.55;;;;;;;24.10;70.06;99631.69;6370389;28;20473;-69
2021/08/17 08:46:20;;;;;;;2.22;1.50;;;;;;;23.96;73.58;99624.59;6370763;28;20075;-62
2021/08/17 08:49:22;;;;;;;10.88;1.58;;;;;;;23.93;71.68;99628.47;6371245;28;20048;-61
2021/08/17 08:52:23;;;;;;;4.07;1.42;;;;;;;23.77;72.70;99617.25;6370806;28;20112;-62
2021/08/17 08:55:24;;;;;;;5.72;1.63;;;;;;;23.78;75.75;99616.22;6352650;28;20078;-60
2021/08/17 08:58:25;;;;;;;2.90;1.70;;;;;;;23.70;74.71;99625.97;6350337;28;20043;-60
2021/08/17 09:01:25;;;;;;;6.13;1.83;;;;;;;23.45;81.23;99632.66;6370516;28;20584;-60
2021/08/17 09:04:26;;;;;;;9.57;1.70;;;;;;;23.30;80.99;99649.47;6370585;28;20478;-60
2021/08/17 09:07:39;;;;;;;3.43;1.73;;;;;;;23.08;79.59;99647.75;6370739;28;20352;-60
2021/08/17 09:10:42;;;;;;;3.15;1.75;;;;;;;23.11;81.89;99631.44;6370740;28;20046;-54
2021/08/17 09:13:43;;;;;;;3.85;1.60;;;;;;;23.08;82.70;99643.28;6370643;28;20055;-53
2021/08/17 09:16:45;;;;;;;4.00;1.58;;;;;;;23.04;80.84;99634.03;6370728;28;20138;-51
2021/08/17 09:19:46;;;;;;;5.35;1.60;;;;;;;23.06;80.87;99645.31;6352515;28;20084;-59
2021/08/17 09:22:47;;;;;;;7.53;1.90;;;;;;;22.92;87.94;99638.94;6352675;28;20047;-60
2021/08/17 09:25:48;;;;;;;15.48;1.67;;;;;;;22.73;91.04;99636.81;6355501;27;20099;-59
2021/08/17 09:28:58;;;;;;;6.97;1.70;;;;;;;22.47;91.94;99654.03;6356988;27;20053;-59
2021/08/17 09:32:10;;;;;;;5.30;1.75;;;;;;;22.39;92.28;99653.28;6372191;27;20111;-59
2021/08/17 09:35:16;;;;;;;3.65;1.80;;;;;;;22.44;91.56;99656.22;6330654;28;20399;-60
2021/08/17 09:38:17;;;;;;;5.38;1.55;;;;;;;22.30;94.85;99669.31;6349804;28;20059;-59
2021/08/17 09:41:25;;;;;;;12.17;2.23;;;;;;;22.21;94.66;99678.28;6343698;27;20047;-59
2021/08/17 09:44:25;;;;;;;3.47;1.45;;;;;;;21.94;94.48;99682.31;6355731;27;20419;-59
2021/08/17 09:47:27;;;;;;;3.80;1.73;;;;;;;21.81;97.09;99682.09;6340601;27;20051;-59
2021/08/17 09:50:33;;;;;;;2.25;1.70;;;;;;;21.65;100.00;99667.06;6349555;27;20050;-59
2021/08/17 09:53:34;;;;;;;4.55;1.88;;;;;;;21.56;100.00;99668.09;6375416;27;20054;-59
2021/08/17 09:56:34;;;;;;;5.33;2.20;;;;;;;21.44;100.00;99695.03;6370945;27;20044;-59
2021/08/17 09:59:39;;;;;;;3.80;2.10;;;;;;;21.37;100.00;99720.56;6349279;28;20048;-66
2021/08/17 10:02:42;;;;;;;3.78;2.35;;;;;;;21.44;100.00;99721.59;6367317;27;20558;-66
2021/08/17 10:05:43;;;;;;;5.50;2.78;;;;;;;21.70;100.00;99709.84;6354185;27;20058;-66
2021/08/17 10:08:45;;;;;;;6.15;3.03;;;;;;;21.84;100.00;99735.66;6332735;27;20197;-66
2021/08/17 10:11:46;;;;;;;;;;;;;;;21.96;100.00;99722.00;6354525;27;20035;-62
2021/08/17 10:14:46;;;;;;;7.55;3.20;;;;;;;21.89;100.00;99720.03;6369468;27;19920;-65
2021/08/17 10:17:48;;;;;;;6.93;3.10;;;;;;;21.94;100.00;99671.69;6330070;28;20117;-64
2021/08/17 10:20:52;;;;;;;6.82;3.22;;;;;;;21.73;100.00;99677.63;6322055;27;20490;-64
2021/08/17 10:23:52;;;;;;;11.35;3.67;;;;;;;21.75;100.00;99694.22;6373537;27;20031;-66
2021/08/17 10:27:16;;;;;;;10.27;4.07;;;;;;;21.49;100.00;99723.72;6336002;27;20047;-66
2021/08/17 10:30:23;;;;;;;8.27;3.70;;;;;;;21.66;100.00;99748.34;6347820;28;20047;-68
2021/08/17 10:33:39;;;;;;;7.65;4.00;;;;;;;21.50;100.00;99760.72;6351242;27;20127;-71
2021/08/17 10:36:46;;;;;;;7.65;4.30;;;;;;;21.44;100.00;99777.31;6352301;27;20171;-69
2021/08/17 10:39:47;;;;;;;10.02;3.47;;;;;;;21.38;100.00;99740.00;6373658;27;20053;-73
2021/08/17 10:42:51;;;;;;;5.67;3.30;;;;;;;21.13;100.00;99719.66;6373704;27;20054;-71
2021/08/17 10:45:55;;;;;;;6.15;2.67;;;;;;;21.52;100.00;99708.28;6350191;27;20370;-67
2021/08/17 10:48:56;;;;;;;5.35;2.83;;;;;;;21.25;100.00;99698.91;6373125;27;20039;-68
2021/08/17 10:52:08;;;;;;;8.27;3.15;;;;;;;21.06;100.00;99715.19;6373008;27;20036;-68
2021/08/17 10:55:20;;;;;;;6.30;3.20;;;;;;;21.01;100.00;99723.66;6353675;27;20043;-70
2021/08/17 10:58:45;;;;;;;3.70;2.38;;;;;;;20.95;100.00;99742.91;6366422;27;20050;-71
2021/08/17 11:01:46;;;;;;;6.63;2.88;;;;;;;20.64;100.00;99761.34;6367965;27;20032;-71
2021/08/17 11:04:48;;;;;;;7.47;3.40;;;;;;;20.43;100.00;99788.28;6318362;27;20081;-68
2021/08/17 11:07:48;;;;;;;9.02;3.22;;;;;;;20.57;100.00;99798.25;6354296;27;20047;-70
2021/08/17 11:10:49;;;;;;;5.77;2.90;;;;;;;20.57;100.00;99814.16;6372542;27;20071;-70
2021/08/17 11:14:23;;;;;;;6.20;2.60;;;;;;;20.20;100.00;99807.47;6337255;27;20035;-70
2021/08/17 11:17:24;;;;;;;7.32;2.20;;;;;;;20.41;100.00;99806.19;6335386;27;20058;-68
2021/08/17 11:20:25;;;;;;;5.40;2.23;;;;;;;20.21;100.00;99809.09;6354214;27;20114;-68
2021/08/17 11:23:25;;;;;;;4.00;2.13;;;;;;;20.09;100.00;99807.75;6372078;27;20378;-69
2021/08/17 11:26:31;;;;;;;5.87;1.90;;;;;;;20.12;98.28;99795.00;6371954;27;20078;-66
2021/08/17 11:29:42;;;;;;;8.00;2.08;;;;;;;20.25;100.00;99775.19;6320144;27;20046;-65
2021/08/17 11:32:45;;;;;;;5.22;1.90;;;;;;;20.54;97.37;99772.06;6351104;27;20043;-68
2021/08/17 11:35:46;;;;;;;4.05;2.00;;;;;;;20.47;96.44;99771.91;6357997;27;20054;-68
2021/08/17 11:38:47;;;;;;;3.17;1.70;;;;;;;20.50;96.10;99781.31;6337489;27;20535;-69
2021/08/17 11:41:48;;;;;;;5.60;1.90;;;;;;;20.09;99.36;99794.50;6325279;27;20647;-66
2021/08/17 11:44:54;;;;;;;3.60;1.90;;;;;;;20.32;98.48;99815.91;6356623;27;20466;-67
2021/08/17 11:47:56;;;;;;;5.50;2.03;;;;;;;20.22;96.10;99841.72;6357691;27;20476;-66
2021/08/17 11:51:08;;;;;;;4.47;2.20;;;;;;;20.14;96.36;99834.59;6352507;27;20043;-65
2021/08/17 11:54:13;;;;;;;5.00;2.30;;;;;;;19.87;98.31;99830.31;6355446;27;20054;-66
2021/08/17 11:57:28;;;;;;;6.10;2.35;;;;;;;20.23;98.24;99795.69;6353503;27;20074;-63
2021/08/17 12:00:31;;;;;;;5.22;2.33;;;;;;;20.47;95.75;99744.56;6319379;27;20059;-73
2021/08/17 12:03:33;;;;;;;4.15;2.10;;;;;;;20.51;97.65;99745.91;6355534;27;20043;-69
2021/08/17 12:06:34;;;;;;;4.32;2.35;;;;;;;21.85;87.90;99786.97;6325266;27;20066;-68
2021/08/17 12:09:38;;;;;;;3.85;2.30;;;;;;;22.52;84.00;99786.41;6338300;27;20051;-72
2021/08/17 12:13:01;;;;;;;5.88;2.20;;;;;;;23.15;76.80;99768.44;6356199;27;20031;-72
2021/08/17 12:16:02;;;;;;;10.25;3.38;;;;;;;22.01;84.03;99780.72;6342045;27;20118;-67
2021/08/17 12:19:02;;;;;;;5.00;2.57;;;;;;;21.86;88.21;99783.28;6338523;27;20405;-65
2021/08/17 12:22:22;;;;;;;7.80;2.67;;;;;;;21.77;89.16;99795.78;6327121;27;20439;-71
2021/08/17 12:25:25;;;;;;;4.70;2.92;;;;;;;21.57;91.04;99789.22;6356659;27;20112;-70
2021/08/17 12:28:32;;;;;;;5.50;2.80;;;;;;;21.25;88.19;99802.38;6355842;27;20039;-68
2021/08/17 12:31:37;;;;;;;6.93;3.40;;;;;;;20.97;94.33;99812.53;6355338;27;20109;-67
2021/08/17 12:34:44;;;;;;;5.20;2.70;;;;;;;20.93;91.48;99808.53;6354907;27;20521;-66
2021/08/17 12:37:45;;;;;;;8.60;2.90;;;;;;;20.67;88.60;99801.59;6354445;27;20047;-67
2021/08/17 12:40:47;;;;;;;4.80;2.70;;;;;;;20.85;89.64;99788.16;6334817;27;20063;-67
2021/08/17 12:43:48;;;;;;;6.10;2.63;;;;;;;21.27;91.64;99776.50;6331725;27;20043;-73
2021/08/17 12:47:04;;;;;;;6.53;2.60;;;;;;;21.65;94.89;99792.66;6352161;27;20510;-67
2021/08/17 12:50:08;;;;;;;7.05;2.88;;;;;;;21.98;83.76;99789.88;6354994;27;20398;-71
2021/08/17 12:53:22;;;;;;;5.05;2.88;;;;;;;22.00;85.99;99787.88;6336558;27;20048;-70
2021/08/17 12:56:23;;;;;;;7.45;3.00;;;;;;;22.03;88.95;99792.84;6334369;27;20469;-70
2021/08/17 12:59:24;;;;;;;5.83;3.33;;;;;;;22.06;84.27;99789.00;6357556;27;20112;-73
2021/08/17 13:02:26;;;;;;;8.27;3.40;;;;;;;22.00;86.63;99793.19;6358059;27;20396;-72
2021/08/17 13:05:27;;;;;;;6.72;3.65;;;;;;;21.89;88.00;99797.06;6359340;27;20134;-74
2021/08/17 13:08:28;;;;;;;6.10;3.30;;;;;;;21.77;86.80;99798.44;6330166;27;20649;-66
2021/08/17 13:11:29;;;;;;;10.37;3.60;;;;;;;22.03;85.41;99795.50;6360931;27;20058;-71
2021/08/17 13:14:30;;;;;;;4.23;3.17;;;;;;;23.71;75.87;99799.91;6341926;27;20112;-68
2021/08/17 13:17:30;;;;;;;5.03;2.92;;;;;;;23.71;74.58;99816.72;6340369;27;20421;-68
2021/08/17 13:20:31;;;;;;;7.17;3.17;;;;;;;23.41;76.81;99826.56;6360878;27;20046;-68
2021/08/17 13:23:32;;;;;;;7.57;3.37;;;;;;;23.34;80.13;99820.28;6360496;27;20038;-70
2021/08/17 13:26:33;;;;;;;5.63;3.40;;;;;;;23.63;78.36;99821.31;6342329;27;20076;-66
2021/08/17 13:29:33;;;;;;;8.33;3.43;;;;;;;23.36;78.44;99823.59;6360804;27;20038;-65
2021/08/17 13:32:34;;;;;;;9.07;3.70;;;;;;;23.32;77.61;99825.78;6359782;27;20096;-66
2021/08/17 13:35:37;;;;;;;11.70;3.80;;;;;;;23.12;77.41;99817.53;6340748;27;20044;-63
2021/08/17 13:38:38;;;;;;;5.38;3.17;;;;;;;23.31;77.77;99818.84;6360193;27;20783;-67
2021/08/17 13:41:39;;;;;;;5.90;3.10;;;;;;;22.99;84.05;99816.44;6340474;27;20134;-66
2021/08/17 13:44:40;;;;;;;6.50;3.33;;;;;;;22.72;79.91;99822.16;6360043;27;20161;-66
2021/08/17 13:47:41;;;;;;;6.17;3.77;;;;;;;22.74;81.40;99836.09;6341628;27;20046;-66
2021/08/17 13:50:42;;;;;;;8.23;3.30;;;;;;;22.37;81.50;99847.47;6341649;27;20043;-65
2021/08/17 13:53:43;;;;;;;6.40;3.08;;;;;;;22.40;83.95;99854.25;6361374;27;20071;-66
2021/08/17 13:56:44;;;;;;;6.73;3.20;;;;;;;22.19;82.39;99870.78;6359751;27;20509;-64
2021/08/17 13:59:44;;;;;;;6.03;3.10;;;;;;;22.19;81.88;99882.25;6359643;27;20051;-64
2021/08/17 14:02:45;;;;;;;8.03;3.77;;;;;;;22.07;81.89;99886.28;6360725;27;20625;-65
2021/08/17 14:05:49;;;;;;;3.57;2.50;;;;;;;21.95;83.38;99885.84;6329125;27;20113;-66
2021/08/17 14:08:50;;;;;;;4.55;3.15;;;;;;;22.01;84.34;99871.03;6342618;27;20492;-66
2021/08/17 14:11:51;;;;;;;5.67;2.47;;;;;;;22.09;80.89;99873.66;6340958;27;20043;-66
2021/08/17 14:14:52;;;;;;;3.55;2.20;;;;;;;22.01;79.83;99877.19;6342584;27;20438;-65